sensor_id;sensor_type;location;lat;lon;timestamp;temperature;humidity
13416;DHT22;6779;50.150;8.680;2023-02-01T00:01:42;5.40;99.90
13416;DHT22;6779;50.150;8.680;2023-02-01T00:04:08;5.40;99.90
13416;DHT22;6779;50.150;8.680;2023-02-01T00:06:33;5.50;99.90
13416;DHT22;6779;50.150;8.680;2023-02-01T00:09:00;5.50;99.90
13416;DHT22;6779;50.150;8.680;2023-02-01T00:11:26;5.50;99.90
13416;DHT22;6779;50.150;8.680;2023-02-01T00:13:52;5.50;99.90
13416;DHT22;6779;50.150;8.680;2023-02-01T00:16:20;5.50;99.90
13416;DHT22;6779;50.150;8.680;2023-02-01T00:18:49;5.50;99.90
13416;DHT22;6779;50.150;8.680;2023-02-01T00:21:17;5.50;99.90
13416;DHT22;6779;50.150;8.680;2023-02-01T00:23:43;5.50;99.90
13416;DHT22;6779;50.150;8.680;2023-02-01T00:26:20;5.50;99.90
13416;DHT22;6779;50.150;8.680;2023-02-01T00:28:47;5.50;99.90
13416;DHT22;6779;50.150;8.680;2023-02-01T00:31:14;5.50;99.90
13416;DHT22;6779;50.150;8.680;2023-02-01T00:33:40;5.50;99.90
13416;DHT22;6779;50.150;8.680;2023-02-01T00:36:07;5.60;99.90
13416;DHT22;6779;50.150;8.680;2023-02-01T00:38:36;5.50;99.90
13416;DHT22;6779;50.150;8.680;2023-02-01T00:41:13;5.60;99.90
13416;DHT22;6779;50.150;8.680;2023-02-01T00:43:39;5.50;99.90
13416;DHT22;6779;50.150;8.680;2023-02-01T00:46:04;5.50;99.90
13416;DHT22;6779;50.150;8.680;2023-02-01T00:48:30;5.50;99.90
13416;DHT22;6779;50.150;8.680;2023-02-01T00:51:04;5.50;99.90
13416;DHT22;6779;50.150;8.680;2023-02-01T00:53:31;5.50;99.90
13416;DHT22;6779;50.150;8.680;2023-02-01T00:55:56;5.50;99.90
13416;DHT22;6779;50.150;8.680;2023-02-01T00:58:22;5.50;99.90
13416;DHT22;6779;50.150;8.680;2023-02-01T01:01:00;5.50;99.90
13416;DHT22;6779;50.150;8.680;2023-02-01T01:03:27;5.50;99.90
13416;DHT22;6779;50.150;8.680;2023-02-01T01:05:56;5.50;99.90
13416;DHT22;6779;50.150;8.680;2023-02-01T01:08:22;5.60;99.90
13416;DHT22;6779;50.150;8.680;2023-02-01T01:10:48;5.50;99.90
13416;DHT22;6779;50.150;8.680;2023-02-01T01:13:14;5.60;99.90
13416;DHT22;6779;50.150;8.680;2023-02-01T01:15:40;5.60;99.90
13416;DHT22;6779;50.150;8.680;2023-02-01T01:18:06;5.60;99.90
13416;DHT22;6779;50.150;8.680;2023-02-01T01:20:34;5.50;99.90
13416;DHT22;6779;50.150;8.680;2023-02-01T01:23:00;5.50;99.90
13416;DHT22;6779;50.150;8.680;2023-02-01T01:25:26;5.50;99.90
13416;DHT22;6779;50.150;8.680;2023-02-01T01:27:52;5.50;99.90
13416;DHT22;6779;50.150;8.680;2023-02-01T01:30:17;5.50;99.90
13416;DHT22;6779;50.150;8.680;2023-02-01T01:32:43;5.60;99.90
13416;DHT22;6779;50.150;8.680;2023-02-01T01:35:09;5.60;99.90
13416;DHT22;6779;50.150;8.680;2023-02-01T01:37:35;5.60;99.90
13416;DHT22;6779;50.150;8.680;2023-02-01T01:40:02;5.60;99.90
13416;DHT22;6779;50.150;8.680;2023-02-01T01:42:27;5.60;99.90
13416;DHT22;6779;50.150;8.680;2023-02-01T01:45:29;5.60;99.90
13416;DHT22;6779;50.150;8.680;2023-02-01T01:47:58;5.60;99.90
13416;DHT22;6779;50.150;8.680;2023-02-01T01:50:29;5.60;99.90
13416;DHT22;6779;50.150;8.680;2023-02-01T01:52:57;5.60;99.90
13416;DHT22;6779;50.150;8.680;2023-02-01T01:55:25;5.60;99.90
13416;DHT22;6779;50.150;8.680;2023-02-01T01:57:59;5.60;99.90
13416;DHT22;6779;50.150;8.680;2023-02-01T02:00:27;5.60;99.90
13416;DHT22;6779;50.150;8.680;2023-02-01T02:03:23;5.60;99.90
13416;DHT22;6779;50.150;8.680;2023-02-01T02:05:50;5.60;99.90
13416;DHT22;6779;50.150;8.680;2023-02-01T02:08:18;5.60;99.90
13416;DHT22;6779;50.150;8.680;2023-02-01T02:10:46;5.60;99.90
13416;DHT22;6779;50.150;8.680;2023-02-01T02:13:35;5.60;99.90
13416;DHT22;6779;50.150;8.680;2023-02-01T02:18:54;5.60;99.90
13416;DHT22;6779;50.150;8.680;2023-02-01T02:21:43;5.60;99.90
13416;DHT22;6779;50.150;8.680;2023-02-01T02:24:44;5.60;99.90
13416;DHT22;6779;50.150;8.680;2023-02-01T02:30:34;5.60;99.90
13416;DHT22;6779;50.150;8.680;2023-02-01T02:33:29;5.60;99.90
13416;DHT22;6779;50.150;8.680;2023-02-01T02:36:08;5.60;99.90
13416;DHT22;6779;50.150;8.680;2023-02-01T02:38:45;5.60;99.90
13416;DHT22;6779;50.150;8.680;2023-02-01T02:41:18;5.60;99.90
13416;DHT22;6779;50.150;8.680;2023-02-01T02:44:12;5.60;99.90
13416;DHT22;6779;50.150;8.680;2023-02-01T02:47:02;5.50;99.90
13416;DHT22;6779;50.150;8.680;2023-02-01T02:50:05;5.50;99.90
13416;DHT22;6779;50.150;8.680;2023-02-01T02:53:07;5.60;99.90
13416;DHT22;6779;50.150;8.680;2023-02-01T02:55:54;5.60;99.90
13416;DHT22;6779;50.150;8.680;2023-02-01T02:58:40;5.60;99.90
13416;DHT22;6779;50.150;8.680;2023-02-01T03:01:25;5.50;99.90
13416;DHT22;6779;50.150;8.680;2023-02-01T03:04:10;5.60;99.90
13416;DHT22;6779;50.150;8.680;2023-02-01T03:06:39;5.70;99.90
13416;DHT22;6779;50.150;8.680;2023-02-01T03:09:11;5.60;99.90
13416;DHT22;6779;50.150;8.680;2023-02-01T03:11:39;5.60;99.90
13416;DHT22;6779;50.150;8.680;2023-02-01T03:14:29;5.60;99.90
13416;DHT22;6779;50.150;8.680;2023-02-01T03:17:03;5.60;99.90
13416;DHT22;6779;50.150;8.680;2023-02-01T03:19:34;5.60;99.90
13416;DHT22;6779;50.150;8.680;2023-02-01T03:22:09;5.60;99.90
13416;DHT22;6779;50.150;8.680;2023-02-01T03:24:45;5.60;99.90
13416;DHT22;6779;50.150;8.680;2023-02-01T03:27:24;5.60;99.90
13416;DHT22;6779;50.150;8.680;2023-02-01T03:32:22;5.70;99.90
13416;DHT22;6779;50.150;8.680;2023-02-01T03:34:47;5.70;99.90
13416;DHT22;6779;50.150;8.680;2023-02-01T03:37:19;5.60;99.90
13416;DHT22;6779;50.150;8.680;2023-02-01T03:39:56;5.60;99.90
13416;DHT22;6779;50.150;8.680;2023-02-01T03:42:44;5.70;99.90
13416;DHT22;6779;50.150;8.680;2023-02-01T03:45:20;5.70;99.90
13416;DHT22;6779;50.150;8.680;2023-02-01T03:47:50;5.70;99.90
13416;DHT22;6779;50.150;8.680;2023-02-01T03:50:23;5.60;99.90
13416;DHT22;6779;50.150;8.680;2023-02-01T03:52:59;5.70;99.90
13416;DHT22;6779;50.150;8.680;2023-02-01T03:55:27;5.70;99.90
13416;DHT22;6779;50.150;8.680;2023-02-01T03:58:12;5.70;99.90
13416;DHT22;6779;50.150;8.680;2023-02-01T04:00:39;5.70;99.90
13416;DHT22;6779;50.150;8.680;2023-02-01T04:03:06;5.70;99.90
13416;DHT22;6779;50.150;8.680;2023-02-01T04:05:32;5.70;99.90
13416;DHT22;6779;50.150;8.680;2023-02-01T04:07:58;5.70;99.90
13416;DHT22;6779;50.150;8.680;2023-02-01T04:10:24;5.70;99.90
13416;DHT22;6779;50.150;8.680;2023-02-01T04:12:49;5.70;99.90
13416;DHT22;6779;50.150;8.680;2023-02-01T04:15:15;5.70;99.90
13416;DHT22;6779;50.150;8.680;2023-02-01T04:17:40;5.80;99.90
13416;DHT22;6779;50.150;8.680;2023-02-01T04:20:06;5.80;99.90
13416;DHT22;6779;50.150;8.680;2023-02-01T04:22:32;5.80;99.90
13416;DHT22;6779;50.150;8.680;2023-02-01T04:24:57;5.80;99.90
13416;DHT22;6779;50.150;8.680;2023-02-01T04:27:23;5.80;99.90
13416;DHT22;6779;50.150;8.680;2023-02-01T04:29:48;5.90;99.90
13416;DHT22;6779;50.150;8.680;2023-02-01T04:32:17;5.80;99.90
13416;DHT22;6779;50.150;8.680;2023-02-01T04:34:43;5.90;99.90
13416;DHT22;6779;50.150;8.680;2023-02-01T04:37:08;5.80;99.90
13416;DHT22;6779;50.150;8.680;2023-02-01T04:39:34;5.80;99.90
13416;DHT22;6779;50.150;8.680;2023-02-01T04:41:59;5.80;99.90
13416;DHT22;6779;50.150;8.680;2023-02-01T04:44:25;5.90;99.90
13416;DHT22;6779;50.150;8.680;2023-02-01T04:46:51;5.80;99.90
13416;DHT22;6779;50.150;8.680;2023-02-01T04:49:17;5.80;99.90
13416;DHT22;6779;50.150;8.680;2023-02-01T04:51:42;5.70;99.90
13416;DHT22;6779;50.150;8.680;2023-02-01T04:54:09;5.80;99.90
13416;DHT22;6779;50.150;8.680;2023-02-01T04:56:37;5.70;99.90
13416;DHT22;6779;50.150;8.680;2023-02-01T04:59:02;5.70;99.90
13416;DHT22;6779;50.150;8.680;2023-02-01T05:01:28;5.70;99.90
13416;DHT22;6779;50.150;8.680;2023-02-01T05:03:54;5.70;99.90
13416;DHT22;6779;50.150;8.680;2023-02-01T05:06:20;5.70;99.90
13416;DHT22;6779;50.150;8.680;2023-02-01T05:08:46;5.70;99.90
13416;DHT22;6779;50.150;8.680;2023-02-01T05:11:11;5.70;99.90
13416;DHT22;6779;50.150;8.680;2023-02-01T05:13:58;5.70;99.90
13416;DHT22;6779;50.150;8.680;2023-02-01T05:16:23;5.60;99.90
13416;DHT22;6779;50.150;8.680;2023-02-01T05:18:49;5.70;99.90
13416;DHT22;6779;50.150;8.680;2023-02-01T05:21:14;5.70;99.90
13416;DHT22;6779;50.150;8.680;2023-02-01T05:23:40;5.80;99.90
13416;DHT22;6779;50.150;8.680;2023-02-01T05:26:24;5.80;99.90
13416;DHT22;6779;50.150;8.680;2023-02-01T05:28:50;5.70;99.90
13416;DHT22;6779;50.150;8.680;2023-02-01T05:31:16;5.70;99.90
13416;DHT22;6779;50.150;8.680;2023-02-01T05:33:41;5.70;99.90
13416;DHT22;6779;50.150;8.680;2023-02-01T05:36:07;5.70;99.90
13416;DHT22;6779;50.150;8.680;2023-02-01T05:38:33;5.70;99.90
13416;DHT22;6779;50.150;8.680;2023-02-01T05:40:58;5.70;99.90
13416;DHT22;6779;50.150;8.680;2023-02-01T05:43:24;5.70;99.90
13416;DHT22;6779;50.150;8.680;2023-02-01T05:45:51;5.80;99.90
13416;DHT22;6779;50.150;8.680;2023-02-01T05:48:17;5.80;99.90
13416;DHT22;6779;50.150;8.680;2023-02-01T05:50:43;5.80;99.90
13416;DHT22;6779;50.150;8.680;2023-02-01T05:53:08;5.80;99.90
13416;DHT22;6779;50.150;8.680;2023-02-01T05:55:34;5.80;99.90
13416;DHT22;6779;50.150;8.680;2023-02-01T05:57:59;5.70;99.90
13416;DHT22;6779;50.150;8.680;2023-02-01T06:00:25;5.70;99.90
13416;DHT22;6779;50.150;8.680;2023-02-01T06:02:50;5.70;99.90
13416;DHT22;6779;50.150;8.680;2023-02-01T06:05:16;5.60;99.90
13416;DHT22;6779;50.150;8.680;2023-02-01T06:07:41;5.60;99.90
13416;DHT22;6779;50.150;8.680;2023-02-01T06:10:08;5.50;99.90
13416;DHT22;6779;50.150;8.680;2023-02-01T06:12:33;5.50;99.90
13416;DHT22;6779;50.150;8.680;2023-02-01T06:15:00;5.50;99.90
13416;DHT22;6779;50.150;8.680;2023-02-01T06:17:26;5.50;99.90
13416;DHT22;6779;50.150;8.680;2023-02-01T06:19:51;5.60;99.90
13416;DHT22;6779;50.150;8.680;2023-02-01T06:22:17;5.60;99.90
13416;DHT22;6779;50.150;8.680;2023-02-01T06:24:43;5.60;99.90
13416;DHT22;6779;50.150;8.680;2023-02-01T06:27:08;5.60;99.90
13416;DHT22;6779;50.150;8.680;2023-02-01T06:29:34;5.60;99.90
13416;DHT22;6779;50.150;8.680;2023-02-01T06:32:00;5.60;99.90
13416;DHT22;6779;50.150;8.680;2023-02-01T06:34:26;5.60;99.90
13416;DHT22;6779;50.150;8.680;2023-02-01T06:36:51;5.60;99.90
13416;DHT22;6779;50.150;8.680;2023-02-01T06:39:17;5.50;99.90
13416;DHT22;6779;50.150;8.680;2023-02-01T06:41:46;5.60;99.90
13416;DHT22;6779;50.150;8.680;2023-02-01T06:44:12;5.50;99.90
13416;DHT22;6779;50.150;8.680;2023-02-01T06:46:37;5.50;99.90
13416;DHT22;6779;50.150;8.680;2023-02-01T06:49:03;5.50;99.90
13416;DHT22;6779;50.150;8.680;2023-02-01T06:51:28;5.60;99.90
13416;DHT22;6779;50.150;8.680;2023-02-01T06:53:55;5.50;99.90
13416;DHT22;6779;50.150;8.680;2023-02-01T06:56:20;5.50;99.90
13416;DHT22;6779;50.150;8.680;2023-02-01T06:58:46;5.50;99.90
13416;DHT22;6779;50.150;8.680;2023-02-01T07:01:12;5.50;99.90
13416;DHT22;6779;50.150;8.680;2023-02-01T07:03:38;5.40;99.90
13416;DHT22;6779;50.150;8.680;2023-02-01T07:06:04;5.40;99.90
13416;DHT22;6779;50.150;8.680;2023-02-01T07:08:32;5.50;99.90
13416;DHT22;6779;50.150;8.680;2023-02-01T07:11:02;5.50;99.90
13416;DHT22;6779;50.150;8.680;2023-02-01T07:13:27;5.60;99.90
13416;DHT22;6779;50.150;8.680;2023-02-01T07:15:53;5.60;99.90
13416;DHT22;6779;50.150;8.680;2023-02-01T07:18:18;5.60;99.90
13416;DHT22;6779;50.150;8.680;2023-02-01T07:20:50;5.70;99.90
13416;DHT22;6779;50.150;8.680;2023-02-01T07:23:16;5.60;99.90
13416;DHT22;6779;50.150;8.680;2023-02-01T07:25:42;5.70;99.90
13416;DHT22;6779;50.150;8.680;2023-02-01T07:28:08;5.70;99.90
13416;DHT22;6779;50.150;8.680;2023-02-01T07:30:33;5.70;99.90
13416;DHT22;6779;50.150;8.680;2023-02-01T07:32:59;5.70;99.90
13416;DHT22;6779;50.150;8.680;2023-02-01T07:35:27;5.70;99.90
13416;DHT22;6779;50.150;8.680;2023-02-01T07:37:52;5.70;99.90
13416;DHT22;6779;50.150;8.680;2023-02-01T07:40:18;5.80;99.90
13416;DHT22;6779;50.150;8.680;2023-02-01T07:42:44;5.70;99.90
13416;DHT22;6779;50.150;8.680;2023-02-01T07:45:09;5.80;99.90
13416;DHT22;6779;50.150;8.680;2023-02-01T07:47:35;5.80;99.90
13416;DHT22;6779;50.150;8.680;2023-02-01T07:50:00;5.80;99.90
13416;DHT22;6779;50.150;8.680;2023-02-01T07:52:28;5.80;99.90
13416;DHT22;6779;50.150;8.680;2023-02-01T07:54:54;5.80;99.90
13416;DHT22;6779;50.150;8.680;2023-02-01T07:57:19;5.90;99.90
13416;DHT22;6779;50.150;8.680;2023-02-01T07:59:45;5.80;99.90
13416;DHT22;6779;50.150;8.680;2023-02-01T08:02:33;5.80;99.90
13416;DHT22;6779;50.150;8.680;2023-02-01T08:04:59;5.80;99.90
13416;DHT22;6779;50.150;8.680;2023-02-01T08:07:24;5.80;99.90
13416;DHT22;6779;50.150;8.680;2023-02-01T08:09:50;5.80;99.90
13416;DHT22;6779;50.150;8.680;2023-02-01T08:12:15;5.80;99.90
13416;DHT22;6779;50.150;8.680;2023-02-01T08:14:41;5.80;99.90
13416;DHT22;6779;50.150;8.680;2023-02-01T08:17:06;5.80;99.90
13416;DHT22;6779;50.150;8.680;2023-02-01T08:19:32;5.80;99.90
13416;DHT22;6779;50.150;8.680;2023-02-01T08:21:58;5.90;99.90
13416;DHT22;6779;50.150;8.680;2023-02-01T08:24:24;5.80;99.90
13416;DHT22;6779;50.150;8.680;2023-02-01T08:26:50;5.80;99.90
13416;DHT22;6779;50.150;8.680;2023-02-01T08:29:16;5.90;99.90
13416;DHT22;6779;50.150;8.680;2023-02-01T08:31:41;5.90;99.90
13416;DHT22;6779;50.150;8.680;2023-02-01T08:34:08;5.90;99.90
13416;DHT22;6779;50.150;8.680;2023-02-01T08:36:34;5.90;99.90
13416;DHT22;6779;50.150;8.680;2023-02-01T08:38:59;5.90;99.90
13416;DHT22;6779;50.150;8.680;2023-02-01T08:41:27;5.90;99.90
13416;DHT22;6779;50.150;8.680;2023-02-01T08:43:53;5.90;99.90
13416;DHT22;6779;50.150;8.680;2023-02-01T08:46:19;5.90;99.90
13416;DHT22;6779;50.150;8.680;2023-02-01T08:48:46;6.00;99.90
13416;DHT22;6779;50.150;8.680;2023-02-01T08:51:14;6.00;99.90
13416;DHT22;6779;50.150;8.680;2023-02-01T08:53:40;5.90;99.90
13416;DHT22;6779;50.150;8.680;2023-02-01T08:56:07;6.00;99.90
13416;DHT22;6779;50.150;8.680;2023-02-01T08:58:33;5.90;99.90
13416;DHT22;6779;50.150;8.680;2023-02-01T09:01:07;6.00;99.90
13416;DHT22;6779;50.150;8.680;2023-02-01T09:03:33;6.00;99.90
13416;DHT22;6779;50.150;8.680;2023-02-01T09:06:09;6.10;99.90
13416;DHT22;6779;50.150;8.680;2023-02-01T09:08:36;6.00;34.60
13416;DHT22;6779;50.150;8.680;2023-02-01T09:11:05;6.00;1.00
13416;DHT22;6779;50.150;8.680;2023-02-01T09:13:31;6.10;99.90
13416;DHT22;6779;50.150;8.680;2023-02-01T09:15:57;6.10;14.10
13416;DHT22;6779;50.150;8.680;2023-02-01T09:18:25;6.10;99.90
13416;DHT22;6779;50.150;8.680;2023-02-01T09:20:50;6.10;99.90
13416;DHT22;6779;50.150;8.680;2023-02-01T09:23:16;6.10;1.00
13416;DHT22;6779;50.150;8.680;2023-02-01T09:25:41;6.10;29.80
13416;DHT22;6779;50.150;8.680;2023-02-01T09:28:07;6.10;1.00
13416;DHT22;6779;50.150;8.680;2023-02-01T09:30:35;6.20;99.90
13416;DHT22;6779;50.150;8.680;2023-02-01T09:33:00;6.20;99.90
13416;DHT22;6779;50.150;8.680;2023-02-01T09:35:26;6.20;99.90
13416;DHT22;6779;50.150;8.680;2023-02-01T09:37:52;6.20;99.90
13416;DHT22;6779;50.150;8.680;2023-02-01T09:40:18;6.20;99.90
13416;DHT22;6779;50.150;8.680;2023-02-01T09:48:02;6.30;1.00
13416;DHT22;6779;50.150;8.680;2023-02-01T09:50:34;6.40;99.90
13416;DHT22;6779;50.150;8.680;2023-02-01T09:53:27;6.40;1.00
13416;DHT22;6779;50.150;8.680;2023-02-01T09:56:02;6.40;99.90
13416;DHT22;6779;50.150;8.680;2023-02-01T09:58:36;6.40;99.90
13416;DHT22;6779;50.150;8.680;2023-02-01T10:01:04;6.40;1.00
13416;DHT22;6779;50.150;8.680;2023-02-01T10:03:33;6.30;1.00
13416;DHT22;6779;50.150;8.680;2023-02-01T10:06:26;6.40;99.90
13416;DHT22;6779;50.150;8.680;2023-02-01T10:18:06;6.50;99.90
13416;DHT22;6779;50.150;8.680;2023-02-01T10:24:02;6.50;99.90
13416;DHT22;6779;50.150;8.680;2023-02-01T10:26:38;6.50;1.00
13416;DHT22;6779;50.150;8.680;2023-02-01T10:29:13;6.50;25.30
13416;DHT22;6779;50.150;8.680;2023-02-01T10:31:41;6.70;1.00
13416;DHT22;6779;50.150;8.680;2023-02-01T10:34:26;6.60;1.00
13416;DHT22;6779;50.150;8.680;2023-02-01T10:39:49;6.60;1.00
13416;DHT22;6779;50.150;8.680;2023-02-01T10:42:19;6.60;1.00
13416;DHT22;6779;50.150;8.680;2023-02-01T10:44:47;6.60;1.00
13416;DHT22;6779;50.150;8.680;2023-02-01T10:47:14;6.60;1.00
13416;DHT22;6779;50.150;8.680;2023-02-01T10:50:04;6.60;1.00
13416;DHT22;6779;50.150;8.680;2023-02-01T10:52:51;6.60;18.90
13416;DHT22;6779;50.150;8.680;2023-02-01T10:55:40;6.70;1.00
13416;DHT22;6779;50.150;8.680;2023-02-01T10:58:14;6.70;1.00
13416;DHT22;6779;50.150;8.680;2023-02-01T11:00:53;6.70;1.00
13416;DHT22;6779;50.150;8.680;2023-02-01T11:05:55;6.70;1.00
13416;DHT22;6779;50.150;8.680;2023-02-01T11:08:21;6.80;1.00
13416;DHT22;6779;50.150;8.680;2023-02-01T11:10:46;6.70;1.00
13416;DHT22;6779;50.150;8.680;2023-02-01T11:13:17;6.70;1.00
13416;DHT22;6779;50.150;8.680;2023-02-01T11:15:55;6.70;1.00
13416;DHT22;6779;50.150;8.680;2023-02-01T11:18:28;6.80;1.00
13416;DHT22;6779;50.150;8.680;2023-02-01T11:20:54;6.70;1.00
13416;DHT22;6779;50.150;8.680;2023-02-01T11:23:31;6.70;1.00
13416;DHT22;6779;50.150;8.680;2023-02-01T11:26:13;6.70;1.00
13416;DHT22;6779;50.150;8.680;2023-02-01T11:28:44;6.80;1.00
13416;DHT22;6779;50.150;8.680;2023-02-01T11:31:13;6.70;5.60
13416;DHT22;6779;50.150;8.680;2023-02-01T11:33:47;6.70;1.00
13416;DHT22;6779;50.150;8.680;2023-02-01T11:36:17;6.80;1.00
13416;DHT22;6779;50.150;8.680;2023-02-01T11:38:52;6.80;1.00
13416;DHT22;6779;50.150;8.680;2023-02-01T11:41:27;6.90;1.00
13416;DHT22;6779;50.150;8.680;2023-02-01T11:43:58;6.80;1.00
13416;DHT22;6779;50.150;8.680;2023-02-01T11:46:28;6.80;3.50
13416;DHT22;6779;50.150;8.680;2023-02-01T11:48:55;6.70;99.90
13416;DHT22;6779;50.150;8.680;2023-02-01T11:54:36;6.70;31.90
13416;DHT22;6779;50.150;8.680;2023-02-01T11:57:49;6.90;1.00
13416;DHT22;6779;50.150;8.680;2023-02-01T12:13:37;6.90;1.00
13416;DHT22;6779;50.150;8.680;2023-02-01T12:16:31;6.90;1.00
13416;DHT22;6779;50.150;8.680;2023-02-01T12:19:28;6.90;1.00
13416;DHT22;6779;50.150;8.680;2023-02-01T12:30:25;7.00;1.00
13416;DHT22;6779;50.150;8.680;2023-02-01T12:38:44;7.10;1.00
13416;DHT22;6779;50.150;8.680;2023-02-01T12:44:00;7.10;1.00
13416;DHT22;6779;50.150;8.680;2023-02-01T12:46:48;7.00;1.00
13416;DHT22;6779;50.150;8.680;2023-02-01T12:52:06;7.00;1.00
13416;DHT22;6779;50.150;8.680;2023-02-01T12:57:14;7.10;8.90
13416;DHT22;6779;50.150;8.680;2023-02-01T13:02:27;7.00;19.10
13416;DHT22;6779;50.150;8.680;2023-02-01T13:05:12;7.00;1.00
13416;DHT22;6779;50.150;8.680;2023-02-01T13:07:43;6.90;99.90
13416;DHT22;6779;50.150;8.680;2023-02-01T13:12:53;7.00;1.00
13416;DHT22;6779;50.150;8.680;2023-02-01T13:15:25;6.90;24.90
13416;DHT22;6779;50.150;8.680;2023-02-01T13:17:52;6.90;99.90
13416;DHT22;6779;50.150;8.680;2023-02-01T13:20:35;7.00;56.20
13416;DHT22;6779;50.150;8.680;2023-02-01T13:23:18;7.00;65.90
13416;DHT22;6779;50.150;8.680;2023-02-01T13:25:49;7.00;63.20
13416;DHT22;6779;50.150;8.680;2023-02-01T13:28:20;7.00;10.10
13416;DHT22;6779;50.150;8.680;2023-02-01T13:34:25;7.00;1.00
13416;DHT22;6779;50.150;8.680;2023-02-01T13:42:43;7.10;1.00
13416;DHT22;6779;50.150;8.680;2023-02-01T13:45:22;7.10;1.00
13416;DHT22;6779;50.150;8.680;2023-02-01T13:47:51;7.10;1.00
13416;DHT22;6779;50.150;8.680;2023-02-01T13:52:55;7.30;1.00
13416;DHT22;6779;50.150;8.680;2023-02-01T13:57:49;7.20;1.00
13416;DHT22;6779;50.150;8.680;2023-02-01T14:00:26;7.30;99.90
13416;DHT22;6779;50.150;8.680;2023-02-01T14:23:45;7.40;99.90
13416;DHT22;6779;50.150;8.680;2023-02-01T14:26:15;7.60;99.90
13416;DHT22;6779;50.150;8.680;2023-02-01T14:29:00;7.60;99.90
13416;DHT22;6779;50.150;8.680;2023-02-01T14:31:54;7.70;99.90
13416;DHT22;6779;50.150;8.680;2023-02-01T14:39:56;8.00;99.90
13416;DHT22;6779;50.150;8.680;2023-02-01T14:50:41;8.30;99.90
13416;DHT22;6779;50.150;8.680;2023-02-01T15:00:58;8.10;99.90
13416;DHT22;6779;50.150;8.680;2023-02-01T15:06:29;8.00;99.90
13416;DHT22;6779;50.150;8.680;2023-02-01T15:08:58;8.00;99.90
13416;DHT22;6779;50.150;8.680;2023-02-01T15:11:25;8.00;99.90
13416;DHT22;6779;50.150;8.680;2023-02-01T15:13:52;8.00;99.90
13416;DHT22;6779;50.150;8.680;2023-02-01T15:16:21;8.00;99.90
13416;DHT22;6779;50.150;8.680;2023-02-01T15:18:48;8.00;99.90
13416;DHT22;6779;50.150;8.680;2023-02-01T15:21:23;7.90;99.90
13416;DHT22;6779;50.150;8.680;2023-02-01T15:23:50;7.80;99.90
13416;DHT22;6779;50.150;8.680;2023-02-01T15:26:29;7.90;99.90
13416;DHT22;6779;50.150;8.680;2023-02-01T15:28:57;7.80;99.90
13416;DHT22;6779;50.150;8.680;2023-02-01T15:31:38;7.80;99.90
13416;DHT22;6779;50.150;8.680;2023-02-01T15:34:04;7.70;99.90
13416;DHT22;6779;50.150;8.680;2023-02-01T15:36:30;7.70;99.90
13416;DHT22;6779;50.150;8.680;2023-02-01T15:41:49;7.70;99.90
13416;DHT22;6779;50.150;8.680;2023-02-01T15:46:49;7.60;99.90
13416;DHT22;6779;50.150;8.680;2023-02-01T15:49:25;7.70;99.90
13416;DHT22;6779;50.150;8.680;2023-02-01T15:51:52;7.60;99.90
13416;DHT22;6779;50.150;8.680;2023-02-01T15:54:28;7.60;99.90
13416;DHT22;6779;50.150;8.680;2023-02-01T15:56:56;7.60;99.90
13416;DHT22;6779;50.150;8.680;2023-02-01T15:59:28;7.60;99.90
13416;DHT22;6779;50.150;8.680;2023-02-01T16:01:54;7.60;99.90
13416;DHT22;6779;50.150;8.680;2023-02-01T16:04:25;7.50;99.90
13416;DHT22;6779;50.150;8.680;2023-02-01T16:07:00;7.50;1.00
13416;DHT22;6779;50.150;8.680;2023-02-01T16:09:48;7.50;1.00
13416;DHT22;6779;50.150;8.680;2023-02-01T16:12:45;7.50;1.00
13416;DHT22;6779;50.150;8.680;2023-02-01T16:15:11;7.40;1.00
13416;DHT22;6779;50.150;8.680;2023-02-01T16:17:37;7.40;1.00
13416;DHT22;6779;50.150;8.680;2023-02-01T16:20:02;7.40;1.00
13416;DHT22;6779;50.150;8.680;2023-02-01T16:22:28;7.40;1.00
13416;DHT22;6779;50.150;8.680;2023-02-01T16:24:53;7.30;96.50
13416;DHT22;6779;50.150;8.680;2023-02-01T16:27:19;7.30;99.90
13416;DHT22;6779;50.150;8.680;2023-02-01T16:29:46;7.30;99.90
13416;DHT22;6779;50.150;8.680;2023-02-01T16:32:18;7.20;99.90
13416;DHT22;6779;50.150;8.680;2023-02-01T16:34:45;7.20;99.90
13416;DHT22;6779;50.150;8.680;2023-02-01T16:37:20;7.30;99.90
13416;DHT22;6779;50.150;8.680;2023-02-01T16:39:46;7.20;76.20
13416;DHT22;6779;50.150;8.680;2023-02-01T16:42:12;7.30;24.00
13416;DHT22;6779;50.150;8.680;2023-02-01T16:44:39;7.20;92.80
13416;DHT22;6779;50.150;8.680;2023-02-01T16:47:16;7.20;86.50
13416;DHT22;6779;50.150;8.680;2023-02-01T16:49:43;7.20;99.90
13416;DHT22;6779;50.150;8.680;2023-02-01T16:52:15;7.20;99.90
13416;DHT22;6779;50.150;8.680;2023-02-01T16:54:41;7.20;99.90
13416;DHT22;6779;50.150;8.680;2023-02-01T16:57:11;7.20;92.00
13416;DHT22;6779;50.150;8.680;2023-02-01T16:59:37;7.20;40.30
13416;DHT22;6779;50.150;8.680;2023-02-01T17:02:03;7.20;60.70
13416;DHT22;6779;50.150;8.680;2023-02-01T17:04:28;7.20;1.00
13416;DHT22;6779;50.150;8.680;2023-02-01T17:06:54;7.20;1.00
13416;DHT22;6779;50.150;8.680;2023-02-01T17:09:19;7.20;1.00
13416;DHT22;6779;50.150;8.680;2023-02-01T17:11:46;7.20;18.20
13416;DHT22;6779;50.150;8.680;2023-02-01T17:14:15;7.10;99.90
13416;DHT22;6779;50.150;8.680;2023-02-01T17:16:42;7.10;99.90
13416;DHT22;6779;50.150;8.680;2023-02-01T17:19:13;7.10;99.90
13416;DHT22;6779;50.150;8.680;2023-02-01T17:21:45;7.00;99.90
13416;DHT22;6779;50.150;8.680;2023-02-01T17:24:15;7.00;1.00
13416;DHT22;6779;50.150;8.680;2023-02-01T17:26:42;7.00;1.00
13416;DHT22;6779;50.150;8.680;2023-02-01T17:29:08;6.90;1.00
13416;DHT22;6779;50.150;8.680;2023-02-01T17:31:38;7.00;1.00
13416;DHT22;6779;50.150;8.680;2023-02-01T17:34:03;7.00;29.90
13416;DHT22;6779;50.150;8.680;2023-02-01T17:36:29;7.00;99.90
13416;DHT22;6779;50.150;8.680;2023-02-01T17:38:55;6.90;99.90
13416;DHT22;6779;50.150;8.680;2023-02-01T17:41:20;6.80;1.00
13416;DHT22;6779;50.150;8.680;2023-02-01T17:43:46;6.80;3.80
13416;DHT22;6779;50.150;8.680;2023-02-01T17:46:15;6.80;99.90
13416;DHT22;6779;50.150;8.680;2023-02-01T17:48:41;6.80;99.90
13416;DHT22;6779;50.150;8.680;2023-02-01T17:51:26;6.70;99.90
13416;DHT22;6779;50.150;8.680;2023-02-01T17:53:53;6.70;94.90
13416;DHT22;6779;50.150;8.680;2023-02-01T17:56:22;6.80;99.90
13416;DHT22;6779;50.150;8.680;2023-02-01T17:58:48;6.80;1.00
13416;DHT22;6779;50.150;8.680;2023-02-01T18:01:18;6.60;81.10
13416;DHT22;6779;50.150;8.680;2023-02-01T18:03:44;6.60;1.00
13416;DHT22;6779;50.150;8.680;2023-02-01T18:06:13;6.50;99.90
13416;DHT22;6779;50.150;8.680;2023-02-01T18:08:39;6.30;1.00
13416;DHT22;6779;50.150;8.680;2023-02-01T18:11:08;6.30;1.00
13416;DHT22;6779;50.150;8.680;2023-02-01T18:13:34;6.20;1.00
13416;DHT22;6779;50.150;8.680;2023-02-01T18:15:59;6.20;1.00
13416;DHT22;6779;50.150;8.680;2023-02-01T18:18:26;6.20;1.00
13416;DHT22;6779;50.150;8.680;2023-02-01T18:20:53;6.10;1.00
13416;DHT22;6779;50.150;8.680;2023-02-01T18:23:20;6.20;1.00
13416;DHT22;6779;50.150;8.680;2023-02-01T18:25:47;6.10;35.50
13416;DHT22;6779;50.150;8.680;2023-02-01T18:28:14;6.00;26.50
13416;DHT22;6779;50.150;8.680;2023-02-01T18:30:41;5.90;67.50
13416;DHT22;6779;50.150;8.680;2023-02-01T18:33:10;5.90;51.90
13416;DHT22;6779;50.150;8.680;2023-02-01T18:35:36;5.90;76.30
13416;DHT22;6779;50.150;8.680;2023-02-01T18:38:02;5.80;96.10
13416;DHT22;6779;50.150;8.680;2023-02-01T18:40:30;5.80;86.20
13416;DHT22;6779;50.150;8.680;2023-02-01T18:42:57;5.80;99.90
13416;DHT22;6779;50.150;8.680;2023-02-01T18:45:33;5.80;99.90